Tiempo atmosférico en la estación meteorológica de Fonfría, Teruel (1262 m.)



Fecha
DESCASC
Temp. máxima en grados centígrados (hora)
DESCASC
Temp. mínima en grados centígrados (hora)
DESCASC
Temp. media en grados centígrados
DESCASC
Racha de viento máxima en m/sg (hora)
DESCASC
Velocidad máxima media en intervalos de 10 minutos(hora)
DESCASC
Precipitaciones diarias en mm
DESCASC
Precipitaciones de 00:00 a 06:00 en mm
DESCASC
Precipitaciones de 06:00 a 12:00 en mm
DESCASC
Precipitaciones de 12:00 a 18:00 en mm
DESCASC
Precipitaciones de 18:00 a 24:00 en mm
DESCASC
03-12-2020 7.1 (15:00) -3.7 (04:50) 1.7 16.39 (21:00) 10.56 (20:00) 0 0 0 0 0
02-12-2020 4.3 (00:20) -1.6 (23:30) 1.4 23.06 (11:30) 16.39 (10:30) 0 0 0 0 0
01-12-2020 8.7 (14:30) 1.4 (08:40) 5 15 (21:00) 10 (14:50) 0 0 0 0 0
30-11-2020 12.1 (13:30) 3.1 (00:00) 7.6 4.17 (14:30) 3.06 (03:00) 0 0 0 0 0
29-11-2020 11 (14:50) 2.6 (00:00) 6.8 7.78 (13:00) 6.11 (08:50) 0 0 0 0 0
28-11-2020 7.7 (15:20) 3.5 (00:00) 5.6 10 (02:10) 5.83 (02:10) 0.4 0.4 0 0 0
27-11-2020 7 (03:10) 4.8 (00:00) 5.9 13.89 (12:50) 8.33 (16:20) 21.2 1.6 6.6 2.4 10.6
26-11-2020 7.5 (16:20) 2 (00:00) 4.8 9.72 (22:10) 7.22 (02:10) 0.8 0 0.6 0.2 0
25-11-2020 10.5 (13:30) 1 (00:00) 5.8 7.22 (08:50) 5.56 (21:30) 0 0 0 0 0
24-11-2020 12.9 (12:40) 2.7 (00:00) 7.8 6.67 (00:50) 5 (00:50) 0 0 0 0 0
23-11-2020 12.6 (16:10) 2.6 (00:00) 7.6 5 (23:40) 3.33 (23:40) 0 0 0 0 0
22-11-2020 11.6 (13:10) 2.7 (00:00) 7.2 7.22 (13:50) 5.56 (13:20) 0 0 0 0 0
21-11-2020 11.6 (11:50) 0.1 (00:00) 5.9 11.94 (00:50) 8.33 (00:40) 0 0 0 0 0
20-11-2020 8 (13:50) 1.6 (00:00) 4.8 14.72 (10:00) 10.56 (02:50) 0 0 0 0 0
19-11-2020 13.4 (12:20) 4.9 (00:00) 9.1 14.17 (21:40) 10 (21:40) 0 0 0 0 0
18-11-2020 16.9 (11:00) 8 (00:00) 12.4 8.06 (15:00) 5.56 (14:40) 0 0 0 0 0
17-11-2020 15.9 (16:20) 4.3 (00:00) 10.1 8.33 (01:10) 5 (00:30) 0 0 0 0 0
16-11-2020 11.8 (02:30) 7.2 (00:00) 9.5 10.28 (00:30) 6.94 (00:20) 1.4 1.2 0.2 0 0
15-11-2020 14.6 (14:10) 8.1 (00:00) 11.4 15 (17:00) 8.89 (16:20) 0 0 0 0 0
14-11-2020 12.7 (13:00) 5 (00:00) 8.8 8.06 (23:59) 5.28 (20:50) 0 0 0 0 0
13-11-2020 14 (14:30) 5.6 (00:00) 9.8 8.61 (00:20) 7.5 (00:30) 0 0 0 0 0
12-11-2020 13.8 (13:10) 6 (00:00) 9.9 9.17 (23:40) 7.5 (22:30) 0 0 0 0 0
11-11-2020 14.6 (16:00) 3.8 (00:00) 9.2 8.33 (11:20) 6.11 (23:59) 0 0 0 0 0
10-11-2020 11.8 (16:00) 3.5 (00:00) 7.7 6.39 (14:40) 4.44 (14:40) 0 0 0 0 0
09-11-2020 13.5 (13:20) 4.8 (00:00) 9.2 9.17 (10:10) 6.11 (01:40) 0 0 0 0 0
08-11-2020 15.7 (15:50) 4.3 (00:00) 10 9.72 (02:20) 7.22 (02:50) 0 0 0 0 0
07-11-2020 11.6 (00:30) 7.5 (00:00) 9.6 11.94 (05:30) 7.78 (05:30) 18.4 4.6 11.6 2.2 0
06-11-2020 14.4 (14:50) 7.3 (00:00) 10.8 11.67 (15:00) 8.06 (15:00) 0.2 0 0 0.2 0

Gráficas

Temp. máximas Temp. mínimas Temp. medias Precipitaciones Rachas de viento máximas Velocidades máximas media en intervalos de 10 minutos

Datos horarios

Fecha y hora oficial Temperatura (ºC) Velocidad del viento (km/h) Dirección del viento Racha (km/h) Dirección de racha Precipitación (mm) Presión (hPa) Tendencia (hPa) Humedad (%)
2020-12-05 23:00:00 0.6 24 Noroeste 43 Noroeste 0 -- -- 87
2020-12-05 22:00:00 0.1 17 Oeste 33 Oeste 0.2 -- -- 91
2020-12-05 21:00:00 -0.1 22 Oeste 40 Oeste 0 -- -- 93
2020-12-05 20:00:00 -0.4 23 Oeste 38 Oeste 0 -- -- 95
2020-12-05 19:00:00 -0.6 24 Oeste 40 Oeste 0.2 -- -- 96
2020-12-05 18:00:00 -0.7 24 Noroeste 43 Noroeste 0.2 -- -- 96
2020-12-05 17:00:00 -0.2 22 Noroeste 42 Noroeste 0 -- -- 89
2020-12-05 16:00:00 0.8 31 Noroeste 57 Noroeste 0 -- -- 77
2020-12-05 15:00:00 1 30 Noroeste 49 Noroeste 0 -- -- 72
2020-12-05 14:00:00 0.4 27 Noroeste 46 Noroeste 0 -- -- 77
2020-12-05 13:00:00 -0.1 27 Noroeste 44 Noroeste 0 -- -- 80
2020-12-05 12:00:00 -0.5 29 Noroeste 46 Noroeste 0 -- -- 79
2020-12-05 11:00:00 -1.4 23 Noroeste 39 Noroeste 0 -- -- 85
2020-12-05 10:00:00 -2.4 22 Noroeste 40 Noroeste 0 -- -- 88
2020-12-05 09:00:00 -2.9 26 Noroeste 38 Noroeste 0 -- -- 87
2020-12-05 08:00:00 -2.9 22 Noroeste 34 Noroeste 0 -- -- 91
2020-12-05 07:00:00 -2.6 19 Noroeste 42 Noroeste 0 -- -- 90
2020-12-05 06:00:00 -2.6 24 Noroeste 43 Noroeste 0 -- -- 91
2020-12-05 05:00:00 -2.5 18 Noroeste 30 Noroeste 0 -- -- 91
2020-12-05 04:00:00 -2.4 17 Noroeste 36 Noroeste 0 -- -- 89
2020-12-05 03:00:00 -2.2 24 Noroeste 40 Noroeste 0 -- -- 90
2020-12-05 02:00:00 -1.6 20 Noroeste 35 Noroeste 0 -- -- 90
2020-12-05 01:00:00 -1.3 23 Noroeste 35 Noroeste 0 -- -- 87
2020-12-05 00:00:00 -1.3 17 Noroeste 31 Noroeste 0 -- -- 84
2020-12-04 23:00:00 -1.6 16 Noroeste 27 Noroeste 0 -- -- 83
2020-12-04 22:00:00 -1.3 19 Noroeste 37 Noroeste 0 -- -- 77
2020-12-04 21:00:00 -1.4 22 Noroeste 39 Noroeste 0 -- -- 79
2020-12-04 20:00:00 -1.7 11 Oeste 32 Noroeste 0 -- -- 79
2020-12-04 19:00:00 -0.9 21 Noroeste 41 Noroeste 0 -- -- 73
2020-12-04 18:00:00 -0.4 27 Noroeste 45 Noroeste 0 -- -- 75
2020-12-04 17:00:00 -0.3 20 Noroeste 36 Noroeste 0 -- -- 78
2020-12-04 16:00:00 0.1 22 Noroeste 36 Norte 0 -- -- 84
2020-12-04 15:00:00 0.3 32 Norte 44 Norte 0 -- -- 84
2020-12-04 14:00:00 2.4 16 Noroeste 31 Noroeste 0 -- -- 86
2020-12-04 13:00:00 1.8 21 Noroeste 47 Noroeste 0 -- -- 89
2020-12-04 12:00:00 0.8 21 Noroeste 46 Noroeste 0.4 -- -- 95
2020-12-04 11:00:00 0.2 18 Noroeste 37 Noroeste 0.4 -- -- 96
2020-12-04 10:00:00 -0.5 20 Noroeste 47 Noroeste 0 -- -- 96
2020-12-04 09:00:00 -0.7 23 Noroeste 46 Noroeste 0.2 -- -- 98
2020-12-04 08:00:00 -0.6 24 Noroeste 55 Noroeste 0.8 -- -- 98
2020-12-04 07:00:00 0.2 27 Noroeste 50 Noroeste 1 -- -- 97
2020-12-04 06:00:00 2.4 10 Oeste 39 Oeste 0 -- -- 88
2020-12-04 05:00:00 2.2 15 Oeste 45 Oeste 0 -- -- 85
2020-12-04 04:00:00 1.7 15 Oeste 38 Oeste 0 -- -- 84
2020-12-04 03:00:00 1.5 15 Oeste 33 Oeste 0 -- -- 84
2020-12-04 02:00:00 1.4 19 Oeste 37 Oeste 0 -- -- 80
2020-12-04 01:00:00 1.3 14 Oeste 31 Oeste 0 -- -- 75
2020-12-04 00:00:00 1.6 22 Oeste 38 Oeste 0 -- -- 72
2020-12-03 23:00:00 1.8 25 Oeste 43 Oeste 0 -- -- 68
2020-12-03 22:00:00 1.7 24 Oeste 43 Oeste 0 -- -- 63
2020-12-03 21:00:00 2.3 33 Oeste 59 Oeste 0 -- -- 57
2020-12-03 20:00:00 2.4 38 Oeste 55 Oeste 0 -- -- 55
2020-12-03 19:00:00 3.1 31 Oeste 50 Oeste 0 -- -- 51
2020-12-03 18:00:00 4 25 Noroeste 42 Noroeste 0 -- -- 47
2020-12-03 17:00:00 4.7 14 Oeste 32 Oeste 0 -- -- 69
2020-12-03 16:00:00 6.1 22 Oeste 41 Oeste 0 -- -- 65
2020-12-03 15:00:00 7.1 22 Oeste 35 Oeste 0 -- -- 61
2020-12-03 14:00:00 5.8 6 Oeste 23 Noroeste 0 -- -- 65
2020-12-03 13:00:00 5.5 12 Oeste 22 Norte 0 -- -- 66
2020-12-03 12:00:00 3.8 13 Norte 17 Norte 0 -- -- 76
2020-12-03 11:00:00 1.5 11 Norte 17 Norte 0 -- -- 81
2020-12-03 10:00:00 0 7 Nordeste 12 Nordeste 0 -- -- 87
2020-12-03 09:00:00 -2.1 6 Noroeste 15 Norte 0 -- -- 93
2020-12-03 08:00:00 -2.3 13 Norte 20 Norte 0 -- -- 92
2020-12-03 07:00:00 -3.2 5 Noroeste 21 Norte 0 -- -- 96
2020-12-03 06:00:00 -3 14 Norte 27 Noroeste 0 -- -- 95
2020-12-03 05:00:00 -3.5 13 Norte 23 Norte 0 -- -- 97
2020-12-03 04:00:00 -2.8 4 Este 23 Noroeste 0 -- -- 89
2020-12-03 03:00:00 -2.8 16 Norte 26 Norte 0 -- -- 90
2020-12-03 02:00:00 -1.9 12 Norte 41 Norte 0 -- -- 88
2020-12-03 01:00:00 -1.1 26 Norte 36 Norte 0 -- -- 88
2020-12-03 00:00:00 -1.3 21 Norte 39 Norte 0 -- -- 87
2020-12-02 23:00:00 -1.5 26 Norte 39 Norte 0 -- -- 91
2020-12-02 22:00:00 -1 23 Norte 41 Norte 0 -- -- 89
2020-12-02 21:00:00 -0.8 31 Norte 46 Norte 0 -- -- 87
2020-12-02 20:00:00 -1 22 Norte 49 Norte 0 -- -- 87
2020-12-02 19:00:00 -0.6 29 Norte 47 Norte 0 -- -- 85
2020-12-02 18:00:00 -0.5 28 Norte 49 Norte 0 -- -- 81
2020-12-02 17:00:00 0.2 32 Nordeste 54 Nordeste 0 -- -- 77
2020-12-02 16:00:00 1.2 37 Nordeste 69 Nordeste 0 -- -- 70
2020-12-02 15:00:00 1.3 46 Nordeste 67 Nordeste 0 -- -- 66
2020-12-02 14:00:00 1.2 32 Nordeste 59 Nordeste 0 -- -- 70
2020-12-02 13:00:00 1.5 35 Nordeste 68 Norte 0 -- -- 70
2020-12-02 12:00:00 1.5 48 Nordeste 83 Norte 0 -- -- 72
2020-12-02 11:00:00 0.8 59 Nordeste 79 Norte 0 -- -- 69
2020-12-02 10:00:00 -0.2 43 Norte 65 Norte 0 -- -- 73
2020-12-02 09:00:00 -0.7 40 Norte 60 Norte 0 -- -- 75
2020-12-02 08:00:00 -1.4 24 Norte 46 Norte 0 -- -- 88
2020-12-02 07:00:00 0.1 35 Norte 54 Norte 0 -- -- 83
2020-12-02 06:00:00 1 44 Norte 60 Norte 0 -- -- 91
2020-12-02 05:00:00 1.9 33 Norte 53 Norte 0 -- -- 99
2020-12-02 04:00:00 1.8 21 Nordeste 39 Norte 0 -- -- 98
2020-12-02 03:00:00 3.3 20 Norte 32 Norte 0 -- -- 91
2020-12-02 02:00:00 3.5 19 Norte 28 Norte 0 -- -- 81
2020-12-02 01:00:00 3.5 19 Norte 30 Noroeste 0 -- -- 76
2020-12-02 00:00:00 4.2 19 Norte 34 Norte 0 -- -- 74
2020-12-01 23:00:00 3.6 22 Norte 42 Norte 0 -- -- 70
2020-12-01 22:00:00 4 34 Norte 47 Norte 0 -- -- 66
2020-12-01 21:00:00 4.1 34 Norte 54 Norte 0 -- -- 64
2020-12-01 20:00:00 3.8 21 Norte 43 Norte 0 -- -- 67
2020-12-01 19:00:00 4.6 27 Norte 42 Norte 0 -- -- 64
2020-12-01 18:00:00 4.8 19 Norte 48 Norte 0 -- -- 71
2020-12-01 17:00:00 5.8 26 Norte 40 Norte 0 -- -- 66
2020-12-01 16:00:00 6.7 27 Nordeste 46 Norte 0 -- -- 66
2020-12-01 15:00:00 7.9 31 Norte 51 Norte 0 -- -- 59
2020-12-01 14:00:00 7.5 23 Nordeste 42 Norte 0 -- -- 58
2020-12-01 13:00:00 7 20 Norte 41 Norte 0 -- -- 60
2020-12-01 12:00:00 6.4 23 Norte 36 Norte 0 -- -- 54
2020-12-01 11:00:00 5.4 27 Norte 38 Norte 0 -- -- 58
2020-12-01 10:00:00 3.9 15 Norte 21 Norte 0 -- -- 81
2020-12-01 09:00:00 2.3 15 Norte 17 Norte 0 -- -- 88
2020-12-01 08:00:00 2.2 5 Noroeste 17 Noroeste 0 -- -- 94
2020-12-01 07:00:00 2.6 9 Norte 14 Norte 0 -- -- 97
2020-12-01 06:00:00 2.3 4 Norte 12 Noroeste 0 -- -- 98
2020-12-01 05:00:00 2.5 8 Noroeste 11 Noroeste 0 -- -- 97
2020-12-01 04:00:00 2.9 8 Noroeste 10 Noroeste 0 -- -- 93
2020-12-01 03:00:00 3.1 6 Noroeste 14 Oeste 0 -- -- 84
2020-12-01 02:00:00 3.3 3 Noroeste 14 Norte 0 -- -- 92
2020-12-01 01:00:00 3.6 4 Noroeste 10 Oeste 0 -- -- 94
2020-12-01 00:00:00 3.8 8 Noroeste 10 Norte 0 -- -- 94
2020-11-30 23:00:00 4 4 Norte 10 Noroeste 0 -- -- 89
2020-11-30 22:00:00 4.9 5 Norte 9 Noroeste 0 -- -- 87
2020-11-30 21:00:00 5.6 3 Noroeste 5 Noroeste 0 -- -- 95
2020-11-30 20:00:00 5.3 0 Calma 6 Norte 0 -- -- 94
2020-11-30 19:00:00 6.2 2 Noroeste 6 Oeste 0 -- -- 92
2020-11-30 18:00:00 5.7 3 Noroeste 8 Noroeste 0 -- -- 91
2020-11-30 17:00:00 8 3 Noroeste 8 Este 0 -- -- 88
2020-11-30 16:00:00 10 3 Nordeste 8 Norte 0 -- -- 79
2020-11-30 15:00:00 10.7 3 Este 15 Nordeste 0 -- -- 73
2020-11-30 14:00:00 11.1 4 Nordeste 8 Nordeste 0 -- -- 68
2020-11-30 13:00:00 11.5 5 Norte 8 Norte 0 -- -- 64
2020-11-30 12:00:00 11 2 Este 5 Este 0 -- -- 64
2020-11-30 11:00:00 10.7 2 Este 4 Este 0 -- -- 65
2020-11-30 10:00:00 8.8 0 Calma 3 Norte 0 -- -- 72
2020-11-30 09:00:00 6.2 0 Calma 4 Oeste 0 -- -- 80
2020-11-30 08:00:00 3.4 2 Noroeste 6 Noroeste 0 -- -- 90
2020-11-30 07:00:00 3.7 2 Noroeste 10 Oeste 0 -- -- 91
2020-11-30 06:00:00 3.3 6 Oeste 12 Oeste 0 -- -- 89
2020-11-30 05:00:00 3.8 6 Oeste 12 Oeste 0 -- -- 88
2020-11-30 04:00:00 3.9 6 Sudoeste 15 Oeste 0 -- -- 89
2020-11-30 03:00:00 3.6 11 Oeste 15 Oeste 0 -- -- 90
2020-11-30 02:00:00 4.4 3 Sudoeste 13 Oeste 0 -- -- 90
2020-11-30 01:00:00 4.2 3 Sudoeste 13 Oeste 0 -- -- 90
2020-11-30 00:00:00 4.3 4 Sudoeste 19 Oeste 0 -- -- 89
2020-11-29 23:00:00 4.4 9 Oeste 18 Oeste 0 -- -- 90
2020-11-29 22:00:00 4 12 Oeste 19 Oeste 0 -- -- 92
2020-11-29 21:00:00 4 18 Oeste 20 Oeste 0 -- -- 91
2020-11-29 20:00:00 4.4 11 Oeste 13 Oeste 0 -- -- 90
2020-11-29 19:00:00 4.8 3 Sudoeste 13 Oeste 0 -- -- 92
2020-11-29 18:00:00 5.2 8 Oeste 10 Oeste 0 -- -- 89
2020-11-29 17:00:00 7.7 8 Sudoeste 10 Sudoeste 0 -- -- 79
2020-11-29 16:00:00 10.1 5 Sudoeste 14 Sudoeste 0 -- -- 67
2020-11-29 15:00:00 10.4 10 Sudoeste 22 Oeste 0 -- -- 69
2020-11-29 14:00:00 9.7 17 Oeste 27 Oeste 0 -- -- 74
2020-11-29 13:00:00 8.8 21 Oeste 28 Oeste 0 -- -- 80
2020-11-29 12:00:00 8.8 12 Sudoeste 19 Sudoeste 0 -- -- 80
2020-11-29 11:00:00 9.3 9 Sudoeste 15 Sudoeste 0 -- -- 77
2020-11-29 10:00:00 5.9 5 Oeste 22 Oeste 0 -- -- 93
2020-11-29 09:00:00 4 18 Oeste 25 Oeste 0 -- -- 95
2020-11-29 08:00:00 3.2 12 Oeste 17 Oeste 0 -- -- 96
2020-11-29 07:00:00 3.3 3 Sur 18 Oeste 0 -- -- 97
2020-11-29 06:00:00 2.7 4 Sur 18 Oeste 0 -- -- 96
2020-11-29 05:00:00 3.3 5 Sudoeste 7 Sudoeste 0 -- -- 94
2020-11-29 04:00:00 3.5 4 Sudoeste 6 Oeste 0 -- -- 95
2020-11-29 03:00:00 3.9 6 Oeste 17 Oeste 0 -- -- 93
2020-11-29 02:00:00 5.3 3 Sudeste 7 Oeste 0 -- -- 92
2020-11-29 01:00:00 5.3 5 Sur 15 Oeste 0 -- -- 93
2020-11-29 00:00:00 5.1 7 Sudoeste 10 Sur 0 -- -- 94
2020-11-28 23:00:00 4.2 6 Sudoeste 14 Oeste 0 -- -- 95
2020-11-28 22:00:00 4.1 5 Sudoeste 8 Sur 0 -- -- 96
2020-11-28 21:00:00 5.1 5 Sur 7 Sur 0 -- -- 97
2020-11-28 20:00:00 5.4 5 Nordeste 10 Nordeste 0 -- -- 97
2020-11-28 19:00:00 5.7 6 Nordeste 10 Este 0 -- -- 95
2020-11-28 18:00:00 6.1 3 Este 13 Este 0 -- -- 90
2020-11-28 17:00:00 6.6 0 Calma 12 Sudeste 0 -- -- 88
2020-11-28 16:00:00 6.7 8 Sudeste 14 Sudeste 0 -- -- 88
2020-11-28 15:00:00 7.6 5 Sudeste 14 Sudeste 0 -- -- 87
2020-11-28 14:00:00 6.8 7 Este 14 Este 0 -- -- 92
2020-11-28 13:00:00 7.4 5 Norte 12 Nordeste 0 -- -- 89
2020-11-28 12:00:00 6.1 10 Nordeste 15 Nordeste 0 -- -- 95
2020-11-28 11:00:00 6 6 Nordeste 9 Nordeste 0 -- -- 98
2020-11-28 10:00:00 4.8 0 Calma 4 Este 0 -- -- 99
2020-11-28 09:00:00 4.5 0 Calma 10 Sudeste 0 -- -- 100
2020-11-28 08:00:00 4.3 6 Sudeste 17 Sur 0 -- -- 100
2020-11-28 07:00:00 4.5 11 Sudeste 26 Sudeste 0 -- -- 100
2020-11-28 06:00:00 4.4 12 Sudeste 20 Sudeste 0 -- -- 100
2020-11-28 05:00:00 4.5 13 Sudeste 25 Sudeste 0 -- -- 100
2020-11-28 04:00:00 4.6 12 Sudeste 25 Sudeste 0 -- -- 100
2020-11-28 03:00:00 4.7 13 Sudeste 36 Sudeste 0.2 -- -- 100
2020-11-28 02:00:00 5 20 Sudeste 35 Este 0.2 -- -- 99
2020-11-28 01:00:00 5.2 18 Sudeste 33 Sudeste 0 -- -- 99
2020-11-28 00:00:00 4.8 12 Sudeste 31 Sudeste 1 -- -- 98
2020-11-27 23:00:00 5 23 Sudeste 50 Sudeste 1 -- -- 98
2020-11-27 22:00:00 5.1 18 Sudeste 40 Sudeste 0 -- -- 98
2020-11-27 21:00:00 5.1 19 Sudeste 40 Sur 1.8 -- -- 98
2020-11-27 20:00:00 5.1 21 Sudeste 47 Sudeste 4.8 -- -- 97
2020-11-27 19:00:00 5.7 26 Sur 46 Sudeste 2 -- -- 95
2020-11-27 18:00:00 6.3 22 Sudeste 45 Sudeste 0.2 -- -- 98
2020-11-27 17:00:00 6.2 25 Sudeste 45 Sudeste 1.4 -- -- 97
2020-11-27 16:00:00 6.7 21 Sudeste 41 Sudeste 0.4 -- -- 95
2020-11-27 15:00:00 6.9 17 Sudeste 37 Sudeste 0 -- -- 96
2020-11-27 14:00:00 6.6 23 Sudeste 40 Sudeste 0 -- -- 96
2020-11-27 13:00:00 6.9 29 Sudeste 50 Sur 0.4 -- -- 95
2020-11-27 12:00:00 6.9 26 Sudeste 42 Sudeste 0 -- -- 98
2020-11-27 11:00:00 6.6 25 Sudeste 42 Sudeste 0 -- -- 99
2020-11-27 10:00:00 6.3 25 Sudeste 47 Sudeste 0 -- -- 99
2020-11-27 09:00:00 6.5 23 Sudeste 39 Sudeste 0 -- -- 99
2020-11-27 08:00:00 5.7 18 Sudeste 30 Sudeste 3.6 -- -- 99
2020-11-27 07:00:00 6.1 20 Sur 37 Sudeste 3 -- -- 97
2020-11-27 06:00:00 6.8 19 Sudeste 41 Sur 1.2 -- -- 97
2020-11-27 05:00:00 6.9 19 Sudeste 38 Sudeste 0.4 -- -- 98
2020-11-27 04:00:00 6.8 15 Sudeste 30 Sur 0 -- -- 98
2020-11-27 03:00:00 6.9 19 Sudeste 31 Sudeste 0 -- -- 98
2020-11-27 02:00:00 6.8 16 Sudeste 29 Sudeste 0 -- -- 97
2020-11-27 01:00:00 6.7 17 Sur 29 Sur 0 -- -- 96
2020-11-27 00:00:00 6.9 21 Sur 33 Sudeste 0 -- -- 96
2020-11-26 23:00:00 7 21 Sur 35 Sur 0 -- -- 97
2020-11-26 22:00:00 6.8 22 Sur 33 Sur 0 -- -- 97
2020-11-26 21:00:00 6.8 16 Sur 27 Sur 0 -- -- 97
2020-11-26 20:00:00 6.7 13 Sur 26 Sur 0 -- -- 97
2020-11-26 19:00:00 6.5 14 Sur 25 Sudeste 0 -- -- 97
2020-11-26 18:00:00 6.4 15 Sur 29 Sudeste 0 -- -- 95
2020-11-26 17:00:00 6.9 18 Sudeste 28 Sudeste 0 -- -- 93
2020-11-26 16:00:00 7.4 12 Sur 26 Sudeste 0 -- -- 96
2020-11-26 15:00:00 7 15 Sudeste 30 Sudeste 0 -- -- 96
2020-11-26 14:00:00 7.2 17 Sudeste 28 Sudeste 0 -- -- 94
2020-11-26 13:00:00 7.4 14 Sudeste 23 Sudeste 0.2 -- -- 96
2020-11-26 12:00:00 6.3 10 Sudeste 26 Sur 0.6 -- -- 96
2020-11-26 11:00:00 6.3 14 Sur 23 Sur 0 -- -- 97
2020-11-26 10:00:00 5.5 8 Sur 22 Sur 0 -- -- 96
2020-11-26 09:00:00 4.1 10 Sur 15 Sur 0 -- -- 97
2020-11-26 08:00:00 3 11 Sur 15 Sur 0 -- -- 96
2020-11-26 07:00:00 3.1 10 Sur 18 Sur 0 -- -- 92
2020-11-26 06:00:00 4 10 Sur 24 Sur 0 -- -- 90
2020-11-26 05:00:00 2.3 8 Sur 22 Sur 0 -- -- 93
2020-11-26 04:00:00 3.8 17 Sudoeste 24 Sudoeste 0 -- -- 88
2020-11-26 03:00:00 3 16 Sudoeste 33 Sudoeste 0 -- -- 89
2020-11-26 02:00:00 3.8 24 Sudoeste 31 Sudoeste 0 -- -- 86
2020-11-26 01:00:00 3.6 14 Sur 26 Sudoeste 0 -- -- 87
2020-11-26 00:00:00 4.2 13 Sur 21 Sur 0 -- -- 88
2020-11-25 23:00:00 4.3 13 Sudoeste 23 Sur 0 -- -- 87
2020-11-25 22:00:00 4.1 14 Sudoeste 26 Sudoeste 0 -- -- 87
2020-11-25 21:00:00 4.6 13 Sudoeste 21 Sudoeste 0 -- -- 86
2020-11-25 20:00:00 5.4 15 Sudoeste 21 Sudoeste 0 -- -- 85
2020-11-25 19:00:00 6.6 12 Sudoeste 24 Sudoeste 0 -- -- 79
2020-11-25 18:00:00 6.8 8 Sur 16 Sudoeste 0 -- -- 76
2020-11-25 17:00:00 8.1 8 Sudoeste 25 Sudoeste 0 -- -- 70
2020-11-25 16:00:00 8.6 14 Sudoeste 26 Sudoeste 0 -- -- 70
2020-11-25 15:00:00 9.1 6 Sudoeste 22 Sudoeste 0 -- -- 63
2020-11-25 14:00:00 9 10 Sudoeste 23 Sur 0 -- -- 61
2020-11-25 13:00:00 10 5 Sur 18 Oeste 0 -- -- 56
2020-11-25 12:00:00 8.7 10 Oeste 18 Oeste 0 -- -- 61
2020-11-25 11:00:00 8.8 4 Norte 8 Nordeste 0 -- -- 59
2020-11-25 10:00:00 7.9 4 Oeste 17 Oeste 0 -- -- 62
2020-11-25 09:00:00 4.6 14 Oeste 26 Oeste 0 -- -- 76
2020-11-25 08:00:00 2.8 9 Noroeste 20 Oeste 0 -- -- 82
2020-11-25 07:00:00 2.9 3 Norte 26 Noroeste 0 -- -- 76
2020-11-25 06:00:00 1.2 12 Oeste 19 Oeste 0 -- -- 76
2020-11-25 05:00:00 1.3 10 Oeste 19 Oeste 0 -- -- 74
2020-11-25 04:00:00 2.5 13 Oeste 18 Oeste 0 -- -- 71
2020-11-25 03:00:00 3.9 0 Calma 16 Oeste 0 -- -- 62
2020-11-25 02:00:00 3.3 4 Sudoeste 10 Sudoeste 0 -- -- 67
2020-11-25 01:00:00 4.3 4 Oeste 14 Oeste 0 -- -- 64
2020-11-25 00:00:00 3.4 0 Calma 19 Oeste 0 -- -- 69
2020-11-24 23:00:00 3.5 14 Oeste 16 Oeste 0 -- -- 70
2020-11-24 22:00:00 4 10 Oeste 12 Oeste 0 -- -- 65
2020-11-24 21:00:00 4.4 10 Oeste 15 Noroeste 0 -- -- 58
2020-11-24 20:00:00 4.5 11 Oeste 13 Noroeste 0 -- -- 53
2020-11-24 19:00:00 4.9 10 Oeste 11 Oeste 0 -- -- 52
2020-11-24 18:00:00 6.3 9 Oeste 10 Oeste 0 -- -- 48
2020-11-24 17:00:00 9.6 5 Noroeste 11 Noroeste 0 -- -- 36
2020-11-24 16:00:00 12.5 7 Oeste 16 Oeste 0 -- -- 31
2020-11-24 15:00:00 12.3 9 Oeste 18 Noroeste 0 -- -- 29
2020-11-24 14:00:00 11.6 8 Noroeste 17 Noroeste 0 -- -- 29
2020-11-24 13:00:00 12.7 9 Noroeste 21 Oeste 0 -- -- 27
2020-11-24 12:00:00 12.2 14 Oeste 22 Oeste 0 -- -- 31
2020-11-24 11:00:00 12 8 Oeste 18 Sur 0 -- -- 40
2020-11-24 10:00:00 9.7 2 Sudeste 6 Sur 0 -- -- 56
2020-11-24 09:00:00 5.9 0 Calma 15 Oeste 0 -- -- 64
2020-11-24 08:00:00 3.6 13 Oeste 20 Oeste 0 -- -- 72
2020-11-24 07:00:00 3.1 6 Oeste 11 Oeste 0 -- -- 74
2020-11-24 06:00:00 4.4 3 Noroeste 13 Oeste 0 -- -- 69
2020-11-24 05:00:00 4.6 9 Oeste 19 Noroeste 0 -- -- 68
2020-11-24 04:00:00 4.8 0 Calma 6 Norte 0 -- -- 66
2020-11-24 03:00:00 5.1 4 Norte 6 Norte 0 -- -- 63
2020-11-24 02:00:00 6.2 3 Norte 19 Oeste 0 -- -- 57
2020-11-24 01:00:00 5.6 18 Oeste 24 Oeste 0 -- -- 56
2020-11-24 00:00:00 5.5 6 Noroeste 18 Oeste 0 -- -- 55
2020-11-23 23:00:00 5.9 3 Noroeste 12 Oeste 0 -- -- 55
2020-11-23 22:00:00 5.2 6 Oeste 15 Oeste 0 -- -- 55
2020-11-23 21:00:00 4.9 3 Oeste 15 Oeste 0 -- -- 57
2020-11-23 20:00:00 5.6 3 Sur 13 Oeste 0 -- -- 58
2020-11-23 19:00:00 5 0 Calma 3 Sur 0 -- -- 52
2020-11-23 18:00:00 6.7 0 Calma 7 Noroeste 0 -- -- 59
2020-11-23 17:00:00 8.1 3 Sudoeste 9 Este 0 -- -- 57
2020-11-23 16:00:00 12.2 7 Noroeste 12 Norte 0 -- -- 38
2020-11-23 15:00:00 11.3 9 Norte 13 Norte 0 -- -- 40
2020-11-23 14:00:00 12.1 8 Norte 13 Norte 0 -- -- 42
2020-11-23 13:00:00 11.4 7 Norte 14 Norte 0 -- -- 44
2020-11-23 12:00:00 10.9 4 Nordeste 6 Nordeste 0 -- -- 46
2020-11-23 11:00:00 10 2 Este 5 Norte 0 -- -- 48
2020-11-23 10:00:00 8.2 2 Nordeste 5 Nordeste 0 -- -- 56
2020-11-23 09:00:00 6.1 2 Oeste 5 Noroeste 0 -- -- 62
2020-11-23 08:00:00 3.5 3 Noroeste 8 Noroeste 0 -- -- 66
2020-11-23 07:00:00 4.5 5 Noroeste 8 Noroeste 0 -- -- 64
2020-11-23 06:00:00 5 5 Noroeste 9 Norte 0 -- -- 61
2020-11-23 05:00:00 4.2 3 Noroeste 7 Noroeste 0 -- -- 62
2020-11-23 04:00:00 4.7 4 Norte 10 Norte 0 -- -- 58
2020-11-23 03:00:00 5.3 5 Norte 9 Norte 0 -- -- 54
2020-11-23 02:00:00 4.3 3 Norte 10 Noroeste 0 -- -- 57
2020-11-23 01:00:00 5.8 6 Noroeste 9 Noroeste 0 -- -- 54
2020-11-23 00:00:00 5.8 0 Calma 5 Norte 0 -- -- 56
2020-11-22 23:00:00 6.5 3 Noroeste 6 Noroeste 0 -- -- 49
2020-11-22 22:00:00 5.4 0 Calma 6 Noroeste 0 -- -- 48
2020-11-22 21:00:00 5.5 3 Oeste 8 Oeste 0 -- -- 48
2020-11-22 20:00:00 6.6 0 Calma 3 Sur 0 -- -- 45
2020-11-22 19:00:00 6.4 0 Calma 5 Oeste 0 -- -- 45
2020-11-22 18:00:00 6.7 3 Oeste 9 Noroeste 0 -- -- 52
2020-11-22 17:00:00 8 7 Noroeste 17 Norte 0 -- -- 51
2020-11-22 16:00:00 10.6 12 Norte 18 Norte 0 -- -- 50
2020-11-22 15:00:00 10.8 15 Norte 23 Norte 0 -- -- 46
2020-11-22 14:00:00 11.2 15 Norte 26 Norte 0 -- -- 44
2020-11-22 13:00:00 11.5 17 Norte 24 Norte 0 -- -- 41
2020-11-22 12:00:00 10.1 15 Nordeste 20 Nordeste 0 -- -- 45
2020-11-22 11:00:00 9.3 10 Norte 13 Norte 0 -- -- 52
2020-11-22 10:00:00 6.8 3 Norte 8 Sudoeste 0 -- -- 66
2020-11-22 09:00:00 5.5 0 Calma 6 Noroeste 0 -- -- 67
2020-11-22 08:00:00 2.7 8 Oeste 13 Oeste 0 -- -- 77
2020-11-22 07:00:00 4 0 Calma 9 Oeste 0 -- -- 64
2020-11-22 06:00:00 3.4 3 Noroeste 7 Noroeste 0 -- -- 67
2020-11-22 05:00:00 4.1 5 Noroeste 8 Noroeste 0 -- -- 61
2020-11-22 04:00:00 4.6 2 Noroeste 9 Noroeste 0 -- -- 58
2020-11-22 03:00:00 4 5 Noroeste 7 Noroeste 0 -- -- 59
2020-11-22 02:00:00 4.4 8 Oeste 22 Oeste 0 -- -- 48
2020-11-22 01:00:00 4.7 3 Sudoeste 9 Noroeste 0 -- -- 46
2020-11-22 00:00:00 4.6 2 Sur 18 Oeste 0 -- -- 48
2020-11-21 23:00:00 4.6 17 Oeste 23 Oeste 0 -- -- 52
2020-11-21 22:00:00 5.3 16 Oeste 22 Oeste 0 -- -- 47
2020-11-21 21:00:00 5.3 8 Noroeste 23 Oeste 0 -- -- 44
2020-11-21 20:00:00 4.3 18 Oeste 21 Oeste 0 -- -- 45
2020-11-21 19:00:00 5.2 3 Sudoeste 10 Sudoeste 0 -- -- 42
2020-11-21 18:00:00 6.2 7 Sudoeste 10 Sur 0 -- -- 41
2020-11-21 17:00:00 7.6 5 Sudoeste 10 Sur 0 -- -- 39
2020-11-21 16:00:00 10.3 5 Sur 14 Sudeste 0 -- -- 32
2020-11-21 15:00:00 10.4 8 Sudeste 14 Sudeste 0 -- -- 30
2020-11-21 14:00:00 10.5 6 Este 17 Sudeste 0 -- -- 33
2020-11-21 13:00:00 10.8 7 Sudeste 14 Sudeste 0 -- -- 30
2020-11-21 12:00:00 11.1 8 Este 12 Este 0 -- -- 32
2020-11-21 11:00:00 9.5 5 Sudeste 8 Sudeste 0 -- -- 32
2020-11-21 10:00:00 6.8 3 Sur 9 Sudeste 0 -- -- 44
2020-11-21 09:00:00 3.7 4 Sur 9 Sur 0 -- -- 43
2020-11-21 08:00:00 0.5 3 Sur 14 Oeste 0 -- -- 46
2020-11-21 07:00:00 1.6 3 Sur 14 Norte 0 -- -- 43
2020-11-21 06:00:00 0.8 2 Nordeste 13 Norte 0 -- -- 44
2020-11-21 05:00:00 1.9 4 Noroeste 8 Norte 0 -- -- 39
2020-11-21 04:00:00 1.8 6 Norte 19 Norte 0 -- -- 38
2020-11-21 03:00:00 2.3 15 Norte 28 Norte 0 -- -- 38
2020-11-21 02:00:00 2.3 21 Norte 33 Norte 0 -- -- 38
2020-11-21 01:00:00 3.1 21 Norte 43 Norte 0 -- -- 35
2020-11-21 00:00:00 2.9 17 Nordeste 26 Nordeste 0 -- -- 37
2020-11-20 23:00:00 2.8 10 Norte 33 Norte 0 -- -- 36
2020-11-20 22:00:00 3.4 23 Norte 37 Norte 0 -- -- 40
2020-11-20 21:00:00 3.7 22 Norte 41 Norte 0 -- -- 43
2020-11-20 20:00:00 3.9 18 Norte 32 Norte 0 -- -- 53
2020-11-20 19:00:00 3.9 7 Nordeste 23 Nordeste 0 -- -- 56
2020-11-20 18:00:00 4.9 24 Norte 39 Norte 0 -- -- 56
2020-11-20 17:00:00 6 22 Norte 36 Norte 0 -- -- 48
2020-11-20 16:00:00 6.9 25 Nordeste 44 Norte 0 -- -- 48
2020-11-20 15:00:00 7.7 32 Norte 40 Nordeste 0 -- -- 50
2020-11-20 14:00:00 8 24 Nordeste 35 Norte 0 -- -- 46
2020-11-20 13:00:00 7.4 27 Nordeste 41 Norte 0 -- -- 52
2020-11-20 12:00:00 7.1 21 Norte 40 Norte 0 -- -- 52
2020-11-20 11:00:00 6.2 27 Nordeste 50 Nordeste 0 -- -- 55
2020-11-20 10:00:00 5.1 38 Norte 53 Norte 0 -- -- 59
2020-11-20 09:00:00 4.2 24 Norte 51 Norte 0 -- -- 60
2020-11-20 08:00:00 2.5 35 Norte 46 Norte 0 -- -- 65
2020-11-20 07:00:00 2.3 17 Norte 38 Norte 0 -- -- 76
2020-11-20 06:00:00 2 11 Norte 28 Norte 0 -- -- 95
2020-11-20 05:00:00 3.2 11 Norte 46 Norte 0 -- -- 71
2020-11-20 04:00:00 3.7 27 Norte 48 Norte 0 -- -- 69
2020-11-20 03:00:00 3.7 37 Norte 51 Norte 0 -- -- 74
2020-11-20 02:00:00 3.3 18 Norte 27 Norte 0 -- -- 92
2020-11-20 01:00:00 4.3 9 Noroeste 39 Norte 0 -- -- 97
2020-11-20 00:00:00 4.9 24 Norte 43 Noroeste 0 -- -- 97
2020-11-19 23:00:00 5.5 32 Norte 50 Norte 0 -- -- 79
2020-11-19 22:00:00 5.7 32 Norte 51 Norte 0 -- -- 87
2020-11-19 21:00:00 6.4 20 Norte 46 Norte 0 -- -- 92
2020-11-19 20:00:00 6.8 22 Norte 37 Nordeste 0 -- -- 94
2020-11-19 19:00:00 7.7 21 Norte 42 Nordeste 0 -- -- 94
2020-11-19 18:00:00 9.1 27 Nordeste 46 Nordeste 0 -- -- 91
2020-11-19 17:00:00 10.6 20 Nordeste 34 Nordeste 0 -- -- 83
2020-11-19 16:00:00 11.9 20 Norte 35 Norte 0 -- -- 82
2020-11-19 15:00:00 12.2 19 Norte 37 Nordeste 0 -- -- 81
2020-11-19 14:00:00 12.7 17 Nordeste 30 Norte 0 -- -- 79
2020-11-19 13:00:00 13.3 17 Norte 31 Nordeste 0 -- -- 77
2020-11-19 12:00:00 13 21 Nordeste 39 Nordeste 0 -- -- 76
2020-11-19 11:00:00 12.8 17 Norte 32 Norte 0 -- -- 74
2020-11-19 10:00:00 11.5 18 Nordeste 36 Norte 0 -- -- 78
2020-11-19 09:00:00 10 24 Norte 36 Norte 0 -- -- 83
2020-11-19 08:00:00 8.9 18 Norte 26 Norte 0 -- -- 83
2020-11-19 07:00:00 8.3 9 Norte 24 Norte 0 -- -- 81
2020-11-19 06:00:00 8.2 7 Norte 18 Norte 0 -- -- 81
2020-11-19 05:00:00 9.2 13 Norte 16 Norte 0 -- -- 75
2020-11-19 04:00:00 9 5 Noroeste 9 Noroeste 0 -- -- 77
2020-11-19 03:00:00 7.9 2 Nordeste 15 Noroeste 0 -- -- 78
2020-11-19 02:00:00 8.9 8 Norte 18 Noroeste 0 -- -- 75
2020-11-19 01:00:00 9.1 8 Norte 19 Norte 0 -- -- 74
2020-11-19 00:00:00 10.5 14 Norte 20 Noroeste 0 -- -- 69
2020-11-18 23:00:00 8.4 4 Norte 8 Norte 0 -- -- 74
2020-11-18 22:00:00 9.2 5 Norte 8 Norte 0 -- -- 71
2020-11-18 21:00:00 10.2 5 Norte 8 Norte 0 -- -- 66
2020-11-18 20:00:00 10.9 4 Norte 9 Norte 0 -- -- 64
2020-11-18 19:00:00 11.1 3 Noroeste 12 Noroeste 0 -- -- 65
2020-11-18 18:00:00 12.2 10 Noroeste 15 Noroeste 0 -- -- 62
2020-11-18 17:00:00 13.4 7 Noroeste 26 Noroeste 0 -- -- 57
2020-11-18 16:00:00 16 20 Noroeste 26 Noroeste 0 -- -- 48
2020-11-18 15:00:00 16.6 18 Norte 29 Norte 0 -- -- 43
2020-11-18 14:00:00 16.5 14 Norte 23 Norte 0 -- -- 48
2020-11-18 13:00:00 15.8 11 Nordeste 19 Norte 0 -- -- 51
2020-11-18 12:00:00 15.1 15 Norte 21 Nordeste 0 -- -- 52
2020-11-18 11:00:00 16.9 8 Noroeste 19 Noroeste 0 -- -- 46
2020-11-18 10:00:00 12.2 4 Norte 5 Norte 0 -- -- 59
2020-11-18 09:00:00 11.5 2 Sudeste 9 Norte 0 -- -- 55
2020-11-18 08:00:00 8.4 4 Oeste 8 Oeste 0 -- -- 65
2020-11-18 07:00:00 8.8 4 Norte 8 Norte 0 -- -- 66
2020-11-18 06:00:00 8.9 2 Norte 12 Noroeste 0 -- -- 66
2020-11-18 05:00:00 10 4 Oeste 11 Oeste 0 -- -- 63
2020-11-18 04:00:00 9.7 7 Oeste 13 Oeste 0 -- -- 65
2020-11-18 03:00:00 9.1 0 Calma 10 Norte 0 -- -- 67
2020-11-18 02:00:00 8.8 2 Este 11 Noroeste 0 -- -- 75
2020-11-18 01:00:00 8.9 6 Noroeste 12 Noroeste 0 -- -- 84
2020-11-18 00:00:00 10.2 5 Noroeste 10 Noroeste 0 -- -- 80
2020-11-17 23:00:00 10 6 Norte 10 Norte 0 -- -- 65
2020-11-17 22:00:00 10.4 2 Norte 9 Oeste 0 -- -- 58
2020-11-17 21:00:00 11.2 0 Calma 6 Sudoeste 0 -- -- 59
2020-11-17 20:00:00 11.1 3 Noroeste 6 Oeste 0 -- -- 63
2020-11-17 19:00:00 11.3 2 Oeste 12 Oeste 0 -- -- 60
2020-11-17 18:00:00 9.8 12 Oeste 15 Oeste 0 -- -- 69
2020-11-17 17:00:00 12.3 8 Noroeste 10 Noroeste 0 -- -- 56
2020-11-17 16:00:00 15.2 8 Norte 14 Noroeste 0 -- -- 48
2020-11-17 15:00:00 15.3 10 Norte 16 Norte 0 -- -- 44
2020-11-17 14:00:00 15.2 12 Norte 16 Norte 0 -- -- 43
2020-11-17 13:00:00 14 12 Norte 17 Norte 0 -- -- 56
2020-11-17 12:00:00 12.4 14 Norte 19 Norte 0 -- -- 72
2020-11-17 11:00:00 11.5 13 Norte 19 Norte 0 -- -- 76
2020-11-17 10:00:00 9.9 7 Norte 11 Norte 0 -- -- 85
2020-11-17 09:00:00 8.4 8 Noroeste 14 Noroeste 0 -- -- 88
2020-11-17 08:00:00 4.8 2 Sur 13 Norte 0 -- -- 97
2020-11-17 07:00:00 5.2 10 Norte 13 Norte 0 -- -- 94
2020-11-17 06:00:00 5.8 3 Norte 14 Norte 0 -- -- 85
2020-11-17 05:00:00 5.1 5 Norte 9 Norte 0 -- -- 95
2020-11-17 04:00:00 5.8 6 Norte 12 Noroeste 0 -- -- 94
2020-11-17 03:00:00 5.9 2 Sudoeste 19 Norte 0 -- -- 90
2020-11-17 02:00:00 8.1 12 Norte 30 Noroeste 0 -- -- 81
2020-11-17 01:00:00 8.5 18 Noroeste 28 Noroeste 0 -- -- 83
2020-11-17 00:00:00 7.5 7 Noroeste 26 Noroeste 0 -- -- 86
2020-11-16 23:00:00 8.7 14 Noroeste 24 Noroeste 0 -- -- 80
2020-11-16 22:00:00 7.9 12 Noroeste 21 Noroeste 0 -- -- 88
2020-11-16 21:00:00 8.1 7 Norte 20 Noroeste 0 -- -- 88
2020-11-16 20:00:00 7.2 4 Sudeste 14 Noroeste 0 -- -- 92
2020-11-16 19:00:00 7.9 6 Norte 17 Noroeste 0 -- -- 88
2020-11-16 18:00:00 8 9 Noroeste 17 Norte 0 -- -- 91
2020-11-16 17:00:00 9.9 15 Norte 28 Norte 0 -- -- 87
2020-11-16 16:00:00 10.9 16 Norte 28 Norte 0 -- -- 84
2020-11-16 15:00:00 11.3 17 Norte 30 Norte 0 -- -- 83
2020-11-16 14:00:00 10.7 14 Norte 31 Noroeste 0 -- -- 86
2020-11-16 13:00:00 9.9 21 Norte 29 Norte 0 -- -- 90
2020-11-16 12:00:00 10 16 Norte 26 Norte 0 -- -- 94
2020-11-16 11:00:00 8.7 6 Norte 15 Norte 0 -- -- 100
2020-11-16 10:00:00 7.6 13 Norte 23 Norte 0 -- -- 100
2020-11-16 09:00:00 7.6 14 Norte 22 Norte 0 -- -- 99
2020-11-16 08:00:00 7.7 5 Nordeste 13 Norte 0 -- -- 99
2020-11-16 07:00:00 7.8 10 Norte 27 Norte 0.2 -- -- 99
2020-11-16 06:00:00 10 19 Norte 37 Noroeste 1 -- -- 97
2020-11-16 05:00:00 11.2 17 Noroeste 30 Noroeste 0.2 -- -- 93
2020-11-16 04:00:00 11.4 17 Noroeste 30 Noroeste 0 -- -- 93
2020-11-16 03:00:00 11.7 20 Noroeste 30 Noroeste 0 -- -- 91
2020-11-16 02:00:00 11.7 14 Noroeste 31 Noroeste 0 -- -- 90
2020-11-16 01:00:00 11.4 18 Oeste 37 Oeste 0 -- -- 91
2020-11-16 00:00:00 11.4 22 Oeste 40 Oeste 0 -- -- 90
2020-11-15 23:00:00 11.6 25 Oeste 42 Oeste 0 -- -- 89
2020-11-15 22:00:00 11.7 21 Noroeste 45 Oeste 0 -- -- 88
2020-11-15 21:00:00 11.9 28 Oeste 47 Oeste 0 -- -- 88
2020-11-15 20:00:00 11.7 23 Noroeste 41 Noroeste 0 -- -- 88
2020-11-15 19:00:00 11.9 28 Oeste 42 Noroeste 0 -- -- 88
2020-11-15 18:00:00 12 21 Noroeste 47 Oeste 0 -- -- 89
2020-11-15 17:00:00 12.6 24 Noroeste 54 Oeste 0 -- -- 84
2020-11-15 16:00:00 13 28 Noroeste 47 Noroeste 0 -- -- 82
2020-11-15 15:00:00 13.4 25 Noroeste 52 Noroeste 0 -- -- 80
2020-11-15 14:00:00 14.1 22 Noroeste 50 Noroeste 0 -- -- 76
2020-11-15 13:00:00 13 25 Noroeste 42 Noroeste 0 -- -- 80
2020-11-15 12:00:00 11.5 17 Oeste 37 Oeste 0 -- -- 87
2020-11-15 11:00:00 10.6 21 Oeste 37 Oeste 0 -- -- 90
2020-11-15 10:00:00 10.2 23 Oeste 35 Oeste 0 -- -- 88
2020-11-15 09:00:00 9.1 27 Oeste 36 Oeste 0 -- -- 93
2020-11-15 08:00:00 8.1 18 Oeste 41 Oeste 0 -- -- 95
2020-11-15 07:00:00 8.8 28 Oeste 44 Oeste 0 -- -- 94
2020-11-15 06:00:00 8.7 21 Oeste 44 Oeste 0 -- -- 95
2020-11-15 05:00:00 8.8 19 Oeste 40 Noroeste 0 -- -- 94
2020-11-15 04:00:00 8.8 27 Oeste 38 Oeste 0 -- -- 95
2020-11-15 03:00:00 8.7 17 Oeste 33 Oeste 0 -- -- 95
2020-11-15 02:00:00 8.7 26 Oeste 39 Oeste 0 -- -- 94
2020-11-15 01:00:00 8.9 28 Oeste 41 Oeste 0 -- -- 93
2020-11-15 00:00:00 9.4 17 Oeste 29 Noroeste 0 -- -- 95
2020-11-14 23:00:00 9.7 11 Oeste 26 Noroeste 0 -- -- 94
2020-11-14 22:00:00 9.5 14 Oeste 25 Oeste 0 -- -- 94
2020-11-14 21:00:00 9.4 18 Oeste 26 Oeste 0 -- -- 94
2020-11-14 20:00:00 9.5 15 Oeste 24 Oeste 0 -- -- 95
2020-11-14 19:00:00 9.8 10 Oeste 19 Oeste 0 -- -- 93
2020-11-14 18:00:00 9.9 9 Oeste 17 Sudoeste 0 -- -- 94
2020-11-14 17:00:00 10.5 11 Oeste 18 Sudoeste 0 -- -- 91
2020-11-14 16:00:00 10.9 7 Oeste 15 Oeste 0 -- -- 88
2020-11-14 15:00:00 12.1 8 Oeste 19 Oeste 0 -- -- 80
2020-11-14 14:00:00 11.6 9 Oeste 24 Sudoeste 0 -- -- 82
2020-11-14 13:00:00 12.7 13 Oeste 26 Oeste 0 -- -- 74
2020-11-14 12:00:00 12.4 16 Sudoeste 24 Oeste 0 -- -- 73
2020-11-14 11:00:00 12.6 15 Oeste 24 Oeste 0 -- -- 69
2020-11-14 10:00:00 9.8 8 Sudoeste 14 Sudoeste 0 -- -- 83
2020-11-14 09:00:00 8 9 Oeste 16 Oeste 0 -- -- 88
2020-11-14 08:00:00 5.7 14 Oeste 16 Oeste 0 -- -- 93
2020-11-14 07:00:00 5.1 13 Oeste 16 Oeste 0 -- -- 92
2020-11-14 06:00:00 5.6 7 Sudoeste 17 Sudoeste 0 -- -- 91
2020-11-14 05:00:00 5.5 7 Oeste 15 Oeste 0 -- -- 89
2020-11-14 04:00:00 5.7 7 Oeste 15 Oeste 0 -- -- 92
2020-11-14 03:00:00 6.1 13 Oeste 19 Oeste 0 -- -- 91
2020-11-14 02:00:00 6.6 16 Oeste 18 Oeste 0 -- -- 90
2020-11-14 01:00:00 6.1 13 Oeste 18 Oeste 0 -- -- 90
2020-11-14 00:00:00 6.2 17 Oeste 19 Oeste 0 -- -- 91
2020-11-13 23:00:00 6.9 15 Oeste 22 Sudoeste 0 -- -- 88
2020-11-13 22:00:00 8.3 17 Sudoeste 20 Sudoeste 0 -- -- 84
2020-11-13 21:00:00 8.2 10 Sudoeste 17 Sur 0 -- -- 84
2020-11-13 20:00:00 7.4 2 Noroeste 13 Sur 0 -- -- 87
2020-11-13 19:00:00 8.4 8 Sur 12 Sur 0 -- -- 82
2020-11-13 18:00:00 9.1 5 Sur 15 Este 0 -- -- 77
2020-11-13 17:00:00 11.9 3 Oeste 14 Oeste 0 -- -- 63
2020-11-13 16:00:00 13.7 7 Oeste 13 Noroeste 0 -- -- 56
2020-11-13 15:00:00 13.9 6 Oeste 17 Oeste 0 -- -- 52
2020-11-13 14:00:00 12.6 3 Oeste 14 Norte 0 -- -- 61
2020-11-13 13:00:00 12.5 5 Noroeste 9 Noroeste 0 -- -- 62
2020-11-13 12:00:00 12.8 4 Este 14 Norte 0 -- -- 56
2020-11-13 11:00:00 12 3 Norte 9 Norte 0 -- -- 54
2020-11-13 10:00:00 11.4 2 Nordeste 21 Oeste 0 -- -- 60
2020-11-13 09:00:00 7 18 Oeste 27 Oeste 0 -- -- 81
2020-11-13 08:00:00 6.5 18 Oeste 27 Oeste 0 -- -- 84
2020-11-13 07:00:00 6.9 21 Oeste 25 Oeste 0 -- -- 84
2020-11-13 06:00:00 6.3 21 Oeste 26 Sudoeste 0 -- -- 83
2020-11-13 05:00:00 6.7 23 Oeste 28 Oeste 0 -- -- 79
2020-11-13 04:00:00 6.7 22 Sudoeste 28 Sudoeste 0 -- -- 75
2020-11-13 03:00:00 7.3 8 Sur 17 Sudoeste 0 -- -- 72
2020-11-13 02:00:00 6.9 6 Sudoeste 18 Oeste 0 -- -- 77
2020-11-13 01:00:00 6.9 22 Sudoeste 31 Oeste 0 -- -- 79
2020-11-13 00:00:00 7 9 Noroeste 33 Oeste 0 -- -- 82
2020-11-12 23:00:00 6.5 17 Sudoeste 32 Oeste 0 -- -- 87
2020-11-12 22:00:00 6.9 24 Oeste 28 Oeste 0 -- -- 82
2020-11-12 21:00:00 6.7 2 Nordeste 6 Nordeste 0 -- -- 83
2020-11-12 20:00:00 7.2 0 Calma 15 Sur 0 -- -- 79
2020-11-12 19:00:00 8.6 9 Sur 13 Sur 0 -- -- 76
2020-11-12 18:00:00 8.6 7 Sur 10 Sur 0 -- -- 83
2020-11-12 17:00:00 10 5 Sur 14 Sudeste 0 -- -- 79
2020-11-12 16:00:00 11.9 9 Sudeste 14 Sudeste 0 -- -- 68
2020-11-12 15:00:00 13.4 8 Sudeste 12 Sudeste 0 -- -- 46
2020-11-12 14:00:00 13.4 7 Sur 14 Sudoeste 0 -- -- 48
2020-11-12 13:00:00 13.7 7 Sudoeste 12 Sur 0 -- -- 45
2020-11-12 12:00:00 12.6 4 Este 6 Este 0 -- -- 53
2020-11-12 11:00:00 10.1 0 Calma 4 Este 0 -- -- 73
2020-11-12 10:00:00 8.2 0 Calma 5 Norte 0 -- -- 79
2020-11-12 09:00:00 6.7 2 Norte 9 Oeste 0 -- -- 84
2020-11-12 08:00:00 6.2 3 Noroeste 8 Norte 0 -- -- 84
2020-11-12 07:00:00 6.3 5 Norte 9 Noroeste 0 -- -- 84
2020-11-12 06:00:00 6.4 3 Noroeste 8 Norte 0 -- -- 84
2020-11-12 05:00:00 6.4 4 Noroeste 14 Noroeste 0 -- -- 83
2020-11-12 04:00:00 7.1 11 Noroeste 18 Noroeste 0 -- -- 79
2020-11-12 03:00:00 6.9 9 Noroeste 31 Noroeste 0 -- -- 82
2020-11-12 02:00:00 7.4 14 Norte 22 Norte 0 -- -- 80
2020-11-12 01:00:00 6.9 3 Sur 27 Oeste 0 -- -- 80
2020-11-12 00:00:00 7.2 22 Oeste 28 Oeste 0 -- -- 77
2020-11-11 23:00:00 6.8 4 Sudeste 15 Oeste 0 -- -- 77
2020-11-11 22:00:00 7.4 12 Oeste 26 Oeste 0 -- -- 72
2020-11-11 21:00:00 6.8 9 Oeste 13 Oeste 0 -- -- 74
2020-11-11 20:00:00 6.5 12 Oeste 17 Oeste 0 -- -- 75
2020-11-11 19:00:00 9.3 10 Noroeste 15 Noroeste 0 -- -- 65
2020-11-11 18:00:00 9.1 9 Oeste 13 Noroeste 0 -- -- 71
2020-11-11 17:00:00 12 6 Noroeste 15 Oeste 0 -- -- 54
2020-11-11 16:00:00 14.6 8 Noroeste 19 Oeste 0 -- -- 47
2020-11-11 15:00:00 13.9 12 Oeste 23 Oeste 0 -- -- 48
2020-11-11 14:00:00 14.1 12 Oeste 23 Oeste 0 -- -- 50
2020-11-11 13:00:00 14 10 Oeste 23 Oeste 0 -- -- 51
2020-11-11 12:00:00 13 16 Oeste 30 Oeste 0 -- -- 55
2020-11-11 11:00:00 12 19 Oeste 30 Oeste 0 -- -- 59
2020-11-11 10:00:00 10.9 10 Oeste 18 Oeste 0 -- -- 69
2020-11-11 09:00:00 8.9 2 Este 15 Oeste 0 -- -- 76
2020-11-11 08:00:00 3.8 5 Oeste 15 Oeste 0 -- -- 94
2020-11-11 07:00:00 4.8 3 Sudeste 16 Oeste 0 -- -- 92
2020-11-11 06:00:00 4.5 15 Oeste 17 Oeste 0 -- -- 93
2020-11-11 05:00:00 4.6 6 Sudoeste 19 Oeste 0 -- -- 94
2020-11-11 04:00:00 4.7 8 Sudoeste 18 Oeste 0 -- -- 90
2020-11-11 03:00:00 4.9 5 Noroeste 16 Oeste 0 -- -- 92
2020-11-11 02:00:00 5.1 6 Sudoeste 12 Sudoeste 0 -- -- 90
2020-11-11 01:00:00 4.9 4 Oeste 10 Sudoeste 0 -- -- 89
2020-11-11 00:00:00 5.1 0 Calma 8 Oeste 0 -- -- 90
2020-11-10 23:00:00 5.1 3 Sudoeste 9 Oeste 0 -- -- 89
2020-11-10 22:00:00 5 2 Sur 5 Sur 0 -- -- 93
2020-11-10 21:00:00 5.6 3 Sudoeste 6 Oeste 0 -- -- 92
2020-11-10 20:00:00 5.2 4 Oeste 7 Oeste 0 -- -- 92
2020-11-10 19:00:00 6.9 4 Noroeste 8 Norte 0 -- -- 89
2020-11-10 18:00:00 7.7 5 Norte 9 Noroeste 0 -- -- 83
2020-11-10 17:00:00 9.4 9 Norte 15 Noroeste 0 -- -- 76
2020-11-10 16:00:00 11.8 10 Noroeste 16 Norte 0 -- -- 65
2020-11-10 15:00:00 10.9 14 Norte 23 Norte 0 -- -- 70
2020-11-10 14:00:00 11 13 Norte 20 Norte 0 -- -- 72
2020-11-10 13:00:00 10.9 11 Norte 18 Norte 0 -- -- 72
2020-11-10 12:00:00 10.3 9 Norte 17 Norte 0 -- -- 76
2020-11-10 11:00:00 8.7 10 Norte 17 Norte 0 -- -- 89
2020-11-10 10:00:00 6.3 6 Norte 10 Norte 0 -- -- 99
2020-11-10 09:00:00 5.2 5 Norte 14 Noroeste 0 -- -- 99
2020-11-10 08:00:00 3.9 8 Norte 13 Noroeste 0 -- -- 99
2020-11-10 07:00:00 4.2 6 Noroeste 16 Norte 0 -- -- 99
2020-11-10 06:00:00 3.8 7 Noroeste 12 Norte 0 -- -- 99
2020-11-10 05:00:00 4.6 0 Calma 5 Norte 0 -- -- 98
2020-11-10 04:00:00 5.5 2 Noroeste 12 Noroeste 0 -- -- 96
2020-11-10 03:00:00 5 0 Calma 10 Noroeste 0 -- -- 96
2020-11-10 02:00:00 5.5 6 Noroeste 10 Noroeste 0 -- -- 95
2020-11-10 01:00:00 5.6 2 Sudeste 18 Noroeste 0 -- -- 94
2020-11-10 00:00:00 6.3 8 Noroeste 16 Noroeste 0 -- -- 92
2020-11-09 23:00:00 6.6 7 Norte 22 Noroeste 0 -- -- 93
2020-11-09 22:00:00 7.3 9 Noroeste 18 Noroeste 0 -- -- 89
2020-11-09 21:00:00 7.5 7 Noroeste 13 Noroeste 0 -- -- 88
2020-11-09 20:00:00 7.5 8 Noroeste 12 Noroeste 0 -- -- 90
2020-11-09 19:00:00 8 6 Oeste 10 Noroeste 0 -- -- 86
2020-11-09 18:00:00 9.1 8 Noroeste 10 Noroeste 0 -- -- 84
2020-11-09 17:00:00 10.2 8 Noroeste 16 Norte 0 -- -- 82
2020-11-09 16:00:00 11.2 14 Norte 22 Norte 0 -- -- 73
2020-11-09 15:00:00 11.3 12 Norte 24 Norte 0 -- -- 73
2020-11-09 14:00:00 11.8 14 Norte 32 Norte 0 -- -- 72
2020-11-09 13:00:00 12.3 13 Noroeste 32 Oeste 0 -- -- 73
2020-11-09 12:00:00 11.6 15 Oeste 32 Oeste 0 -- -- 78
2020-11-09 11:00:00 11.7 20 Oeste 33 Oeste 0 -- -- 75
2020-11-09 10:00:00 10.8 17 Oeste 29 Oeste 0 -- -- 77
2020-11-09 09:00:00 8.5 14 Oeste 26 Sudoeste 0 -- -- 82
2020-11-09 08:00:00 6.1 9 Oeste 23 Oeste 0 -- -- 88
2020-11-09 07:00:00 5.9 17 Oeste 22 Oeste 0 -- -- 89
2020-11-09 06:00:00 5.7 6 Oeste 15 Oeste 0 -- -- 87
2020-11-09 05:00:00 5.4 8 Sudoeste 16 Oeste 0 -- -- 89
2020-11-09 04:00:00 7.1 6 Noroeste 23 Oeste 0 -- -- 82
2020-11-09 03:00:00 6.4 14 Oeste 21 Oeste 0 -- -- 86
2020-11-09 02:00:00 6 5 Sur 25 Oeste 0 -- -- 87
2020-11-09 01:00:00 5.8 10 Sudoeste 17 Sudoeste 0 -- -- 86
2020-11-09 00:00:00 5.3 6 Oeste 19 Oeste 0 -- -- 86
2020-11-08 23:00:00 7.7 15 Oeste 22 Oeste 0 -- -- 77
2020-11-08 22:00:00 7.4 18 Oeste 22 Oeste 0 -- -- 80
2020-11-08 21:00:00 6 9 Oeste 13 Noroeste 0 -- -- 86
2020-11-08 20:00:00 6.6 10 Oeste 14 Oeste 0 -- -- 84
2020-11-08 19:00:00 8 11 Oeste 19 Sudoeste 0 -- -- 82
2020-11-08 18:00:00 9.2 0 Calma 7 Oeste 0 -- -- 87
2020-11-08 17:00:00 10.8 6 Este 15 Este 0 -- -- 81
2020-11-08 16:00:00 15.3 5 Noroeste 17 Oeste 0 -- -- 49
2020-11-08 15:00:00 15 8 Noroeste 17 Oeste 0 -- -- 47
2020-11-08 14:00:00 14.2 9 Noroeste 23 Sudoeste 0 -- -- 53
2020-11-08 13:00:00 13.6 13 Oeste 21 Sur 0 -- -- 60
2020-11-08 12:00:00 12.2 9 Sudoeste 23 Sudoeste 0 -- -- 67
2020-11-08 11:00:00 11.1 11 Sudoeste 24 Sudoeste 0 -- -- 71
2020-11-08 10:00:00 7.2 5 Nordeste 12 Sudoeste 0 -- -- 85
2020-11-08 09:00:00 6 10 Oeste 12 Sudoeste 0 -- -- 88
2020-11-08 08:00:00 4.3 6 Sudoeste 10 Sudoeste 0 -- -- 90
2020-11-08 07:00:00 5.6 0 Calma 10 Oeste 0 -- -- 87
2020-11-08 06:00:00 6.3 11 Noroeste 31 Oeste 0 -- -- 83
2020-11-08 05:00:00 6.7 23 Oeste 33 Oeste 0 -- -- 86
2020-11-08 04:00:00 6.7 20 Oeste 32 Oeste 0 -- -- 90
2020-11-08 03:00:00 6.9 23 Oeste 35 Oeste 0 -- -- 93
2020-11-08 02:00:00 7.1 24 Oeste 34 Oeste 0 -- -- 93
2020-11-08 01:00:00 6.9 12 Oeste 32 Oeste 0 -- -- 94
2020-11-08 00:00:00 7.7 14 Oeste 27 Oeste 0 -- -- 92
2020-11-07 23:00:00 7.5 15 Oeste 24 Oeste 0 -- -- 92
2020-11-07 22:00:00 7.7 17 Oeste 23 Oeste 0 -- -- 92
2020-11-07 21:00:00 7.9 16 Oeste 27 Oeste 0 -- -- 92
2020-11-07 20:00:00 7.8 11 Oeste 21 Oeste 0 -- -- 92
2020-11-07 19:00:00 8.5 5 Noroeste 24 Noroeste 0 -- -- 88
2020-11-07 18:00:00 8.5 8 Noroeste 20 Noroeste 0 -- -- 89
2020-11-07 17:00:00 9 10 Noroeste 23 Noroeste 1 -- -- 90
2020-11-07 16:00:00 8.9 13 Oeste 34 Oeste 1.2 -- -- 91
2020-11-07 15:00:00 11.1 19 Oeste 39 Oeste 0 -- -- 74
2020-11-07 14:00:00 11 19 Oeste 38 Oeste 0 -- -- 77
2020-11-07 13:00:00 11 17 Oeste 31 Oeste 0 -- -- 78
2020-11-07 12:00:00 10.6 17 Oeste 36 Oeste 0 -- -- 79
2020-11-07 11:00:00 10.1 14 Oeste 28 Oeste 0 -- -- 86
2020-11-07 10:00:00 9.4 17 Sudoeste 30 Sudoeste 0.2 -- -- 93
2020-11-07 09:00:00 8.1 13 Sudoeste 27 Sudoeste 1.4 -- -- 97
2020-11-07 08:00:00 8.2 12 Sudoeste 24 Sudoeste 2.8 -- -- 99
2020-11-07 07:00:00 8.3 15 Oeste 35 Noroeste 7.2 -- -- 98
2020-11-07 06:00:00 9.4 16 Oeste 43 Sur 4.4 -- -- 94
2020-11-07 05:00:00 11.1 26 Sur 37 Sudeste 0 -- -- 95
2020-11-07 04:00:00 10.9 18 Sur 32 Sur 0.2 -- -- 93
2020-11-07 03:00:00 10.8 18 Sur 28 Sur 0 -- -- 90
2020-11-07 02:00:00 10.5 13 Sur 27 Sur 0 -- -- 87
2020-11-07 01:00:00 11.4 12 Sur 26 Sur 0 -- -- 81
2020-11-07 00:00:00 11 14 Sur 22 Sudeste 0 -- -- 82
2020-11-06 23:00:00 10.9 8 Sur 33 Sur 0 -- -- 84
2020-11-06 22:00:00 10.7 17 Sur 28 Sur 0 -- -- 86
2020-11-06 21:00:00 11 21 Sur 36 Sur 0 -- -- 85
2020-11-06 20:00:00 11 17 Sur 30 Sur 0 -- -- 85
2020-11-06 19:00:00 10.7 18 Sur 28 Sudeste 0 -- -- 92
2020-11-06 18:00:00 11.3 17 Sur 32 Sur 0 -- -- 91
2020-11-06 17:00:00 12.5 20 Sur 32 Sur 0 -- -- 86
2020-11-06 16:00:00 13.3 17 Sur 37 Sur 0.2 -- -- 87
2020-11-06 15:00:00 14.3 29 Sur 42 Sur 0 -- -- 81
2020-11-06 14:00:00 13.3 26 Sur 39 Sudeste 0 -- -- 87
2020-11-06 13:00:00 12.5 20 Sur 33 Sur 0 -- -- 94
2020-11-06 12:00:00 12.1 19 Sur 30 Sur 0 -- -- 93
2020-11-06 11:00:00 11.3 19 Sur 35 Sur 0 -- -- 97
2020-11-06 10:00:00 10.8 14 Sur 22 Sur 0 -- -- 98
2020-11-06 09:00:00 9.2 14 Sur 23 Sur 0 -- -- 99
2020-11-06 08:00:00 9.2 14 Sur 30 Sudoeste 0 -- -- 98
2020-11-06 07:00:00 8.9 16 Sur 26 Sur 0 -- -- 100
2020-11-06 06:00:00 9.2 18 Sur 27 Sur 0 -- -- 100
2020-11-06 05:00:00 8.5 17 Sur 27 Sur 0 -- -- 100
2020-11-06 04:00:00 8.6 16 Sur 25 Sur 0 -- -- 100
2020-11-06 03:00:00 8.5 13 Sur 26 Sur 0 -- -- 100
2020-11-06 02:00:00 8.6 14 Sur 22 Sur 0 -- -- 100
2020-11-06 01:00:00 7.9 12 Sur 26 Sur 0 -- -- 100
2020-11-06 00:00:00 8.1 15 Sur 24 Sur 0 -- -- 100